sensor_id;sensor_type;location;lat;lon;timestamp;temperature;humidity
17994;DHT22;9122;48.406;9.984;2023-07-31T00:02:15;18.40;85.60
17994;DHT22;9122;48.406;9.984;2023-07-31T00:05:00;18.30;85.40
17994;DHT22;9122;48.406;9.984;2023-07-31T00:07:45;18.30;85.40
17994;DHT22;9122;48.406;9.984;2023-07-31T00:10:29;18.30;85.60
17994;DHT22;9122;48.406;9.984;2023-07-31T00:13:14;18.30;85.50
17994;DHT22;9122;48.406;9.984;2023-07-31T00:15:59;18.20;85.50
17994;DHT22;9122;48.406;9.984;2023-07-31T00:18:43;18.20;85.70
17994;DHT22;9122;48.406;9.984;2023-07-31T00:21:27;18.10;85.90
17994;DHT22;9122;48.406;9.984;2023-07-31T00:24:11;18.10;86.00
17994;DHT22;9122;48.406;9.984;2023-07-31T00:26:55;18.10;86.00
17994;DHT22;9122;48.406;9.984;2023-07-31T00:29:40;18.00;86.00
17994;DHT22;9122;48.406;9.984;2023-07-31T00:32:24;18.00;85.90
17994;DHT22;9122;48.406;9.984;2023-07-31T00:35:09;18.00;86.20
17994;DHT22;9122;48.406;9.984;2023-07-31T00:37:53;18.00;86.80
17994;DHT22;9122;48.406;9.984;2023-07-31T00:40:37;18.00;87.30
17994;DHT22;9122;48.406;9.984;2023-07-31T00:43:22;17.90;87.20
17994;DHT22;9122;48.406;9.984;2023-07-31T00:46:07;17.90;87.20
17994;DHT22;9122;48.406;9.984;2023-07-31T00:48:51;17.90;87.30
17994;DHT22;9122;48.406;9.984;2023-07-31T00:51:35;17.80;87.40
17994;DHT22;9122;48.406;9.984;2023-07-31T00:54:20;17.80;87.50
17994;DHT22;9122;48.406;9.984;2023-07-31T00:57:05;17.80;87.70
17994;DHT22;9122;48.406;9.984;2023-07-31T00:59:51;17.70;87.70
17994;DHT22;9122;48.406;9.984;2023-07-31T01:02:36;17.70;87.90
17994;DHT22;9122;48.406;9.984;2023-07-31T01:08:58;17.60;88.20
17994;DHT22;9122;48.406;9.984;2023-07-31T01:11:57;17.50;88.50
17994;DHT22;9122;48.406;9.984;2023-07-31T01:17:46;17.40;94.90
17994;DHT22;9122;48.406;9.984;2023-07-31T01:20:32;17.40;89.00
17994;DHT22;9122;48.406;9.984;2023-07-31T01:26:12;17.40;99.90
17994;DHT22;9122;48.406;9.984;2023-07-31T01:29:10;17.30;98.70
17994;DHT22;9122;48.406;9.984;2023-07-31T01:31:56;17.30;89.60
17994;DHT22;9122;48.406;9.984;2023-07-31T01:34:41;17.30;89.60
17994;DHT22;9122;48.406;9.984;2023-07-31T01:37:29;17.20;89.50
17994;DHT22;9122;48.406;9.984;2023-07-31T01:40:14;17.20;89.60
17994;DHT22;9122;48.406;9.984;2023-07-31T01:42:58;17.10;89.70
17994;DHT22;9122;48.406;9.984;2023-07-31T01:45:42;17.10;89.80
17994;DHT22;9122;48.406;9.984;2023-07-31T01:48:26;17.10;89.90
17994;DHT22;9122;48.406;9.984;2023-07-31T01:51:11;17.00;90.00
17994;DHT22;9122;48.406;9.984;2023-07-31T01:53:55;17.00;90.00
17994;DHT22;9122;48.406;9.984;2023-07-31T01:56:39;17.00;90.00
17994;DHT22;9122;48.406;9.984;2023-07-31T01:59:23;17.00;90.00
17994;DHT22;9122;48.406;9.984;2023-07-31T02:02:07;17.00;96.10
17994;DHT22;9122;48.406;9.984;2023-07-31T02:04:52;17.00;90.30
17994;DHT22;9122;48.406;9.984;2023-07-31T02:07:36;16.90;90.40
17994;DHT22;9122;48.406;9.984;2023-07-31T02:10:21;16.90;90.40
17994;DHT22;9122;48.406;9.984;2023-07-31T02:13:05;16.80;90.40
17994;DHT22;9122;48.406;9.984;2023-07-31T02:15:50;16.80;93.90
17994;DHT22;9122;48.406;9.984;2023-07-31T02:18:35;16.70;99.90
17994;DHT22;9122;48.406;9.984;2023-07-31T02:21:19;16.80;99.90
17994;DHT22;9122;48.406;9.984;2023-07-31T02:24:04;16.60;99.90
17994;DHT22;9122;48.406;9.984;2023-07-31T02:29:33;16.70;99.90
17994;DHT22;9122;48.406;9.984;2023-07-31T02:32:17;16.60;99.90
17994;DHT22;9122;48.406;9.984;2023-07-31T02:35:01;16.60;99.90
17994;DHT22;9122;48.406;9.984;2023-07-31T02:46:00;16.40;99.90
17994;DHT22;9122;48.406;9.984;2023-07-31T03:02:27;16.30;99.90
17994;DHT22;9122;48.406;9.984;2023-07-31T03:05:11;16.20;99.90
17994;DHT22;9122;48.406;9.984;2023-07-31T03:07:56;16.20;99.90
17994;DHT22;9122;48.406;9.984;2023-07-31T03:49:05;15.90;99.90
17994;DHT22;9122;48.406;9.984;2023-07-31T03:51:50;15.80;98.10
17994;DHT22;9122;48.406;9.984;2023-07-31T04:35:52;15.90;99.90
17994;DHT22;9122;48.406;9.984;2023-07-31T04:38:36;15.90;99.90
17994;DHT22;9122;48.406;9.984;2023-07-31T04:44:06;15.80;99.90
17994;DHT22;9122;48.406;9.984;2023-07-31T05:52:42;16.30;99.90
17994;DHT22;9122;48.406;9.984;2023-07-31T05:55:26;16.30;93.10
17994;DHT22;9122;48.406;9.984;2023-07-31T05:58:11;16.30;93.10
17994;DHT22;9122;48.406;9.984;2023-07-31T06:00:55;16.30;93.00
17994;DHT22;9122;48.406;9.984;2023-07-31T06:03:39;16.40;93.10
17994;DHT22;9122;48.406;9.984;2023-07-31T06:06:24;16.40;93.10
17994;DHT22;9122;48.406;9.984;2023-07-31T06:09:08;16.50;93.10
17994;DHT22;9122;48.406;9.984;2023-07-31T06:11:52;16.50;93.00
17994;DHT22;9122;48.406;9.984;2023-07-31T06:14:37;16.70;99.90
17994;DHT22;9122;48.406;9.984;2023-07-31T06:17:21;16.60;92.90
17994;DHT22;9122;48.406;9.984;2023-07-31T06:20:06;16.60;92.90
17994;DHT22;9122;48.406;9.984;2023-07-31T06:22:51;16.70;93.00
17994;DHT22;9122;48.406;9.984;2023-07-31T06:25:36;16.70;92.90
17994;DHT22;9122;48.406;9.984;2023-07-31T06:28:20;16.90;99.90
17994;DHT22;9122;48.406;9.984;2023-07-31T06:31:05;16.80;92.90
17994;DHT22;9122;48.406;9.984;2023-07-31T06:33:51;16.90;92.80
17994;DHT22;9122;48.406;9.984;2023-07-31T06:36:35;17.00;99.90
17994;DHT22;9122;48.406;9.984;2023-07-31T06:39:20;17.00;94.20
17994;DHT22;9122;48.406;9.984;2023-07-31T06:42:05;17.30;94.70
17994;DHT22;9122;48.406;9.984;2023-07-31T06:44:49;17.20;95.30
17994;DHT22;9122;48.406;9.984;2023-07-31T07:26:05;17.30;99.90
17994;DHT22;9122;48.406;9.984;2023-07-31T07:50:49;17.80;99.90
17994;DHT22;9122;48.406;9.984;2023-07-31T08:21:02;18.40;99.30
17994;DHT22;9122;48.406;9.984;2023-07-31T08:45:47;19.30;98.40
17994;DHT22;9122;48.406;9.984;2023-07-31T08:54:02;19.70;96.50
17994;DHT22;9122;48.406;9.984;2023-07-31T08:56:51;19.90;97.10
17994;DHT22;9122;48.406;9.984;2023-07-31T08:59:38;20.10;96.90
17994;DHT22;9122;48.406;9.984;2023-07-31T09:02:26;20.20;96.40
17994;DHT22;9122;48.406;9.984;2023-07-31T09:08:00;20.50;96.40
17994;DHT22;9122;48.406;9.984;2023-07-31T09:13:31;20.80;95.70
17994;DHT22;9122;48.406;9.984;2023-07-31T09:32:49;21.60;94.30
17994;DHT22;9122;48.406;9.984;2023-07-31T09:35:34;21.80;94.50
17994;DHT22;9122;48.406;9.984;2023-07-31T09:41:05;21.80;94.00
17994;DHT22;9122;48.406;9.984;2023-07-31T09:43:54;22.00;92.00
17994;DHT22;9122;48.406;9.984;2023-07-31T09:49:25;22.10;94.10
17994;DHT22;9122;48.406;9.984;2023-07-31T09:52:12;22.20;99.10
17994;DHT22;9122;48.406;9.984;2023-07-31T10:03:16;22.30;92.30
17994;DHT22;9122;48.406;9.984;2023-07-31T10:06:00;22.40;89.70
17994;DHT22;9122;48.406;9.984;2023-07-31T10:08:47;22.40;99.90
17994;DHT22;9122;48.406;9.984;2023-07-31T10:11:50;22.20;99.90
17994;DHT22;9122;48.406;9.984;2023-07-31T10:14:38;22.40;90.80
17994;DHT22;9122;48.406;9.984;2023-07-31T10:17:24;22.70;99.90
17994;DHT22;9122;48.406;9.984;2023-07-31T10:20:09;22.80;90.00
17994;DHT22;9122;48.406;9.984;2023-07-31T10:22:55;22.80;99.90
17994;DHT22;9122;48.406;9.984;2023-07-31T10:25:41;22.90;93.10
17994;DHT22;9122;48.406;9.984;2023-07-31T10:28:26;23.00;86.80
17994;DHT22;9122;48.406;9.984;2023-07-31T10:31:11;22.80;99.90
17994;DHT22;9122;48.406;9.984;2023-07-31T10:33:58;23.10;99.90
17994;DHT22;9122;48.406;9.984;2023-07-31T10:36:47;23.20;99.90
17994;DHT22;9122;48.406;9.984;2023-07-31T10:39:36;23.10;99.90
17994;DHT22;9122;48.406;9.984;2023-07-31T10:48:14;23.40;99.90
17994;DHT22;9122;48.406;9.984;2023-07-31T10:50:59;23.40;99.90
17994;DHT22;9122;48.406;9.984;2023-07-31T10:53:43;23.40;99.90
17994;DHT22;9122;48.406;9.984;2023-07-31T10:56:37;23.40;90.10
17994;DHT22;9122;48.406;9.984;2023-07-31T10:59:26;23.50;69.70
17994;DHT22;9122;48.406;9.984;2023-07-31T11:02:24;23.60;69.30
17994;DHT22;9122;48.406;9.984;2023-07-31T11:05:14;23.70;68.70
17994;DHT22;9122;48.406;9.984;2023-07-31T11:07:59;23.70;69.10
17994;DHT22;9122;48.406;9.984;2023-07-31T11:10:44;23.70;69.10
17994;DHT22;9122;48.406;9.984;2023-07-31T11:13:33;24.10;85.20
17994;DHT22;9122;48.406;9.984;2023-07-31T11:16:22;23.80;69.90
17994;DHT22;9122;48.406;9.984;2023-07-31T11:19:08;23.90;68.10
17994;DHT22;9122;48.406;9.984;2023-07-31T11:24:38;23.90;66.40
17994;DHT22;9122;48.406;9.984;2023-07-31T11:27:22;23.90;67.10
17994;DHT22;9122;48.406;9.984;2023-07-31T11:30:07;23.80;68.20
17994;DHT22;9122;48.406;9.984;2023-07-31T11:32:52;23.80;67.90
17994;DHT22;9122;48.406;9.984;2023-07-31T11:35:49;23.80;67.60
17994;DHT22;9122;48.406;9.984;2023-07-31T11:38:34;23.90;68.20
17994;DHT22;9122;48.406;9.984;2023-07-31T11:41:19;24.00;82.70
17994;DHT22;9122;48.406;9.984;2023-07-31T11:44:06;24.20;82.80
17994;DHT22;9122;48.406;9.984;2023-07-31T11:46:51;24.10;68.70
17994;DHT22;9122;48.406;9.984;2023-07-31T11:49:36;24.30;81.00
17994;DHT22;9122;48.406;9.984;2023-07-31T11:52:21;24.20;67.80
17994;DHT22;9122;48.406;9.984;2023-07-31T11:55:08;24.20;67.80
17994;DHT22;9122;48.406;9.984;2023-07-31T11:57:57;24.20;79.90
17994;DHT22;9122;48.406;9.984;2023-07-31T12:00:43;24.20;66.40
17994;DHT22;9122;48.406;9.984;2023-07-31T12:03:27;24.20;66.30
17994;DHT22;9122;48.406;9.984;2023-07-31T12:06:14;24.20;65.90
17994;DHT22;9122;48.406;9.984;2023-07-31T12:09:06;24.10;66.10
17994;DHT22;9122;48.406;9.984;2023-07-31T12:11:50;24.10;66.70
17994;DHT22;9122;48.406;9.984;2023-07-31T12:14:35;24.00;66.50
17994;DHT22;9122;48.406;9.984;2023-07-31T12:17:25;24.00;67.30
17994;DHT22;9122;48.406;9.984;2023-07-31T12:20:10;23.90;66.90
17994;DHT22;9122;48.406;9.984;2023-07-31T12:22:56;23.90;68.00
17994;DHT22;9122;48.406;9.984;2023-07-31T12:25:41;23.90;67.70
17994;DHT22;9122;48.406;9.984;2023-07-31T12:28:26;23.80;67.70
17994;DHT22;9122;48.406;9.984;2023-07-31T12:31:12;23.80;68.10
17994;DHT22;9122;48.406;9.984;2023-07-31T12:33:57;23.70;67.90
17994;DHT22;9122;48.406;9.984;2023-07-31T12:36:42;23.70;68.00
17994;DHT22;9122;48.406;9.984;2023-07-31T12:39:27;23.70;68.40
17994;DHT22;9122;48.406;9.984;2023-07-31T12:42:11;23.70;68.60
17994;DHT22;9122;48.406;9.984;2023-07-31T12:44:56;23.70;68.40
17994;DHT22;9122;48.406;9.984;2023-07-31T12:47:40;23.60;68.10
17994;DHT22;9122;48.406;9.984;2023-07-31T12:50:25;23.60;68.50
17994;DHT22;9122;48.406;9.984;2023-07-31T12:53:09;23.60;82.60
17994;DHT22;9122;48.406;9.984;2023-07-31T12:55:55;23.60;68.60
17994;DHT22;9122;48.406;9.984;2023-07-31T12:58:39;23.50;68.50
17994;DHT22;9122;48.406;9.984;2023-07-31T13:01:24;23.50;68.70
17994;DHT22;9122;48.406;9.984;2023-07-31T13:04:09;23.50;68.70
17994;DHT22;9122;48.406;9.984;2023-07-31T13:06:53;23.50;68.70
17994;DHT22;9122;48.406;9.984;2023-07-31T13:09:38;23.50;69.10
17994;DHT22;9122;48.406;9.984;2023-07-31T13:12:23;23.40;69.20
17994;DHT22;9122;48.406;9.984;2023-07-31T13:15:07;23.40;69.60
17994;DHT22;9122;48.406;9.984;2023-07-31T13:17:52;23.40;69.10
17994;DHT22;9122;48.406;9.984;2023-07-31T13:20:37;23.40;69.50
17994;DHT22;9122;48.406;9.984;2023-07-31T13:23:21;23.40;69.70
17994;DHT22;9122;48.406;9.984;2023-07-31T13:26:06;23.40;69.80
17994;DHT22;9122;48.406;9.984;2023-07-31T13:28:50;23.40;72.20
17994;DHT22;9122;48.406;9.984;2023-07-31T13:31:34;23.30;73.70
17994;DHT22;9122;48.406;9.984;2023-07-31T13:34:19;23.30;75.30
17994;DHT22;9122;48.406;9.984;2023-07-31T13:37:04;23.30;74.30
17994;DHT22;9122;48.406;9.984;2023-07-31T13:39:49;23.30;74.50
17994;DHT22;9122;48.406;9.984;2023-07-31T13:42:34;23.30;72.80
17994;DHT22;9122;48.406;9.984;2023-07-31T13:45:19;23.30;72.70
17994;DHT22;9122;48.406;9.984;2023-07-31T13:48:03;23.30;73.00
17994;DHT22;9122;48.406;9.984;2023-07-31T13:50:48;23.40;72.50
17994;DHT22;9122;48.406;9.984;2023-07-31T13:53:32;23.40;72.10
17994;DHT22;9122;48.406;9.984;2023-07-31T13:56:17;23.40;71.50
17994;DHT22;9122;48.406;9.984;2023-07-31T13:59:01;23.40;71.10
17994;DHT22;9122;48.406;9.984;2023-07-31T14:01:46;23.40;71.40
17994;DHT22;9122;48.406;9.984;2023-07-31T14:04:31;23.50;71.40
17994;DHT22;9122;48.406;9.984;2023-07-31T14:07:16;23.50;71.20
17994;DHT22;9122;48.406;9.984;2023-07-31T14:10:01;23.50;70.50
17994;DHT22;9122;48.406;9.984;2023-07-31T14:12:48;23.50;69.70
17994;DHT22;9122;48.406;9.984;2023-07-31T14:15:33;23.60;69.80
17994;DHT22;9122;48.406;9.984;2023-07-31T14:18:19;23.50;69.40
17994;DHT22;9122;48.406;9.984;2023-07-31T14:21:04;23.50;69.70
17994;DHT22;9122;48.406;9.984;2023-07-31T14:23:48;23.50;69.90
17994;DHT22;9122;48.406;9.984;2023-07-31T14:26:33;23.50;70.20
17994;DHT22;9122;48.406;9.984;2023-07-31T14:29:17;23.50;70.50
17994;DHT22;9122;48.406;9.984;2023-07-31T14:32:02;23.50;70.10
17994;DHT22;9122;48.406;9.984;2023-07-31T14:34:47;23.50;70.00
17994;DHT22;9122;48.406;9.984;2023-07-31T14:37:41;23.50;69.80
17994;DHT22;9122;48.406;9.984;2023-07-31T14:40:26;23.50;70.40
17994;DHT22;9122;48.406;9.984;2023-07-31T14:43:10;23.50;70.50
17994;DHT22;9122;48.406;9.984;2023-07-31T14:45:55;23.50;70.90
17994;DHT22;9122;48.406;9.984;2023-07-31T14:48:43;23.50;70.80
17994;DHT22;9122;48.406;9.984;2023-07-31T14:51:30;23.60;70.80
17994;DHT22;9122;48.406;9.984;2023-07-31T14:54:15;23.60;70.60
17994;DHT22;9122;48.406;9.984;2023-07-31T14:56:59;23.60;71.00
17994;DHT22;9122;48.406;9.984;2023-07-31T14:59:45;23.70;71.00
17994;DHT22;9122;48.406;9.984;2023-07-31T15:02:29;23.70;70.40
17994;DHT22;9122;48.406;9.984;2023-07-31T15:05:16;23.70;70.40
17994;DHT22;9122;48.406;9.984;2023-07-31T15:08:00;23.70;69.20
17994;DHT22;9122;48.406;9.984;2023-07-31T15:10:44;23.80;86.70
17994;DHT22;9122;48.406;9.984;2023-07-31T15:13:29;23.70;69.10
17994;DHT22;9122;48.406;9.984;2023-07-31T15:16:13;23.80;69.80
17994;DHT22;9122;48.406;9.984;2023-07-31T15:18:58;23.80;69.10
17994;DHT22;9122;48.406;9.984;2023-07-31T15:21:43;23.80;69.10
17994;DHT22;9122;48.406;9.984;2023-07-31T15:24:27;23.80;68.90
17994;DHT22;9122;48.406;9.984;2023-07-31T15:27:12;23.80;69.40
17994;DHT22;9122;48.406;9.984;2023-07-31T15:29:57;23.90;69.10
17994;DHT22;9122;48.406;9.984;2023-07-31T15:32:42;23.90;69.20
17994;DHT22;9122;48.406;9.984;2023-07-31T15:35:29;23.90;69.00
17994;DHT22;9122;48.406;9.984;2023-07-31T15:38:14;23.90;86.00
17994;DHT22;9122;48.406;9.984;2023-07-31T15:40:58;24.00;85.80
17994;DHT22;9122;48.406;9.984;2023-07-31T15:43:43;23.90;69.00
17994;DHT22;9122;48.406;9.984;2023-07-31T15:46:28;23.90;69.30
17994;DHT22;9122;48.406;9.984;2023-07-31T15:49:12;24.00;69.40
17994;DHT22;9122;48.406;9.984;2023-07-31T15:51:57;24.00;69.00
17994;DHT22;9122;48.406;9.984;2023-07-31T15:54:42;24.00;69.20
17994;DHT22;9122;48.406;9.984;2023-07-31T15:57:27;24.00;69.30
17994;DHT22;9122;48.406;9.984;2023-07-31T16:00:12;24.00;70.10
17994;DHT22;9122;48.406;9.984;2023-07-31T16:02:56;24.00;70.20
17994;DHT22;9122;48.406;9.984;2023-07-31T16:05:40;24.00;70.50
17994;DHT22;9122;48.406;9.984;2023-07-31T16:08:25;24.00;70.30
17994;DHT22;9122;48.406;9.984;2023-07-31T16:11:10;24.00;70.30
17994;DHT22;9122;48.406;9.984;2023-07-31T16:13:54;24.00;70.60
17994;DHT22;9122;48.406;9.984;2023-07-31T16:16:38;24.00;70.60
17994;DHT22;9122;48.406;9.984;2023-07-31T16:19:23;24.00;70.40
17994;DHT22;9122;48.406;9.984;2023-07-31T16:22:07;24.00;70.40
17994;DHT22;9122;48.406;9.984;2023-07-31T16:24:52;24.00;70.30
17994;DHT22;9122;48.406;9.984;2023-07-31T16:27:36;24.00;70.70
17994;DHT22;9122;48.406;9.984;2023-07-31T16:30:21;24.00;70.90
17994;DHT22;9122;48.406;9.984;2023-07-31T16:33:05;24.10;71.30
17994;DHT22;9122;48.406;9.984;2023-07-31T16:35:50;24.00;71.00
17994;DHT22;9122;48.406;9.984;2023-07-31T16:38:34;24.00;71.10
17994;DHT22;9122;48.406;9.984;2023-07-31T16:41:21;24.00;71.30
17994;DHT22;9122;48.406;9.984;2023-07-31T16:44:06;24.00;71.40
17994;DHT22;9122;48.406;9.984;2023-07-31T16:46:50;24.00;71.50
17994;DHT22;9122;48.406;9.984;2023-07-31T16:49:34;24.00;71.50
17994;DHT22;9122;48.406;9.984;2023-07-31T16:52:18;24.00;71.30
17994;DHT22;9122;48.406;9.984;2023-07-31T16:55:03;24.00;71.20
17994;DHT22;9122;48.406;9.984;2023-07-31T16:57:47;24.00;70.80
17994;DHT22;9122;48.406;9.984;2023-07-31T17:00:32;24.00;70.80
17994;DHT22;9122;48.406;9.984;2023-07-31T17:03:16;24.00;70.50
17994;DHT22;9122;48.406;9.984;2023-07-31T17:06:01;24.00;70.40
17994;DHT22;9122;48.406;9.984;2023-07-31T17:08:45;24.00;70.50
17994;DHT22;9122;48.406;9.984;2023-07-31T17:11:30;24.00;70.50
17994;DHT22;9122;48.406;9.984;2023-07-31T17:14:14;24.00;70.80
17994;DHT22;9122;48.406;9.984;2023-07-31T17:16:58;24.00;70.90
17994;DHT22;9122;48.406;9.984;2023-07-31T17:19:42;24.00;71.20
17994;DHT22;9122;48.406;9.984;2023-07-31T17:22:27;24.00;71.50
17994;DHT22;9122;48.406;9.984;2023-07-31T17:25:11;24.00;71.70
17994;DHT22;9122;48.406;9.984;2023-07-31T17:27:56;24.00;89.30
17994;DHT22;9122;48.406;9.984;2023-07-31T17:33:25;24.00;71.10
17994;DHT22;9122;48.406;9.984;2023-07-31T17:36:09;24.00;71.80
17994;DHT22;9122;48.406;9.984;2023-07-31T17:38:54;24.00;72.00
17994;DHT22;9122;48.406;9.984;2023-07-31T17:41:38;24.00;72.20
17994;DHT22;9122;48.406;9.984;2023-07-31T17:44:22;24.00;72.50
17994;DHT22;9122;48.406;9.984;2023-07-31T17:47:07;23.90;73.50
17994;DHT22;9122;48.406;9.984;2023-07-31T17:49:51;23.90;72.90
17994;DHT22;9122;48.406;9.984;2023-07-31T17:52:36;23.90;73.10
17994;DHT22;9122;48.406;9.984;2023-07-31T17:55:20;23.90;73.30
17994;DHT22;9122;48.406;9.984;2023-07-31T17:58:04;23.90;72.90
17994;DHT22;9122;48.406;9.984;2023-07-31T18:00:51;23.90;72.90
17994;DHT22;9122;48.406;9.984;2023-07-31T18:03:35;23.80;72.60
17994;DHT22;9122;48.406;9.984;2023-07-31T18:06:20;23.80;72.60
17994;DHT22;9122;48.406;9.984;2023-07-31T18:09:04;23.80;72.50
17994;DHT22;9122;48.406;9.984;2023-07-31T18:11:49;23.80;72.30
17994;DHT22;9122;48.406;9.984;2023-07-31T18:14:33;23.80;72.30
17994;DHT22;9122;48.406;9.984;2023-07-31T18:17:20;23.70;72.10
17994;DHT22;9122;48.406;9.984;2023-07-31T18:20:04;23.70;72.10
17994;DHT22;9122;48.406;9.984;2023-07-31T18:22:51;23.70;72.50
17994;DHT22;9122;48.406;9.984;2023-07-31T18:25:34;23.70;72.50
17994;DHT22;9122;48.406;9.984;2023-07-31T18:28:19;23.70;72.70
17994;DHT22;9122;48.406;9.984;2023-07-31T18:31:03;23.70;73.10
17994;DHT22;9122;48.406;9.984;2023-07-31T18:33:49;23.60;89.90
17994;DHT22;9122;48.406;9.984;2023-07-31T18:36:33;23.60;74.10
17994;DHT22;9122;48.406;9.984;2023-07-31T18:39:19;23.60;74.30
17994;DHT22;9122;48.406;9.984;2023-07-31T18:42:03;23.60;74.50
17994;DHT22;9122;48.406;9.984;2023-07-31T18:44:48;23.60;74.60
17994;DHT22;9122;48.406;9.984;2023-07-31T18:47:32;23.60;74.80
17994;DHT22;9122;48.406;9.984;2023-07-31T18:50:17;23.60;75.20
17994;DHT22;9122;48.406;9.984;2023-07-31T18:53:01;23.50;75.10
17994;DHT22;9122;48.406;9.984;2023-07-31T18:55:46;23.50;75.10
17994;DHT22;9122;48.406;9.984;2023-07-31T18:58:30;23.50;75.30
17994;DHT22;9122;48.406;9.984;2023-07-31T19:01:15;23.50;75.80
17994;DHT22;9122;48.406;9.984;2023-07-31T19:03:59;23.40;76.10
17994;DHT22;9122;48.406;9.984;2023-07-31T19:06:44;23.50;76.10
17994;DHT22;9122;48.406;9.984;2023-07-31T19:09:32;23.30;91.60
17994;DHT22;9122;48.406;9.984;2023-07-31T19:12:17;23.40;76.20
17994;DHT22;9122;48.406;9.984;2023-07-31T19:15:01;23.40;76.30
17994;DHT22;9122;48.406;9.984;2023-07-31T19:17:46;23.40;76.30
17994;DHT22;9122;48.406;9.984;2023-07-31T19:20:30;23.40;76.40
17994;DHT22;9122;48.406;9.984;2023-07-31T19:23:16;23.40;76.60
17994;DHT22;9122;48.406;9.984;2023-07-31T19:26:01;23.30;76.70
17994;DHT22;9122;48.406;9.984;2023-07-31T19:28:46;23.30;76.70
17994;DHT22;9122;48.406;9.984;2023-07-31T19:31:30;23.30;76.70
17994;DHT22;9122;48.406;9.984;2023-07-31T19:34:15;23.30;77.00
17994;DHT22;9122;48.406;9.984;2023-07-31T19:36:59;23.10;92.10
17994;DHT22;9122;48.406;9.984;2023-07-31T19:39:44;23.20;92.30
17994;DHT22;9122;48.406;9.984;2023-07-31T19:42:28;23.20;77.60
17994;DHT22;9122;48.406;9.984;2023-07-31T19:45:13;23.20;77.70
17994;DHT22;9122;48.406;9.984;2023-07-31T19:47:58;23.20;79.00
17994;DHT22;9122;48.406;9.984;2023-07-31T19:50:42;23.20;77.60
17994;DHT22;9122;48.406;9.984;2023-07-31T20:12:58;23.00;77.60
17994;DHT22;9122;48.406;9.984;2023-07-31T20:15:43;23.00;77.70
17994;DHT22;9122;48.406;9.984;2023-07-31T20:18:27;23.00;77.70
17994;DHT22;9122;48.406;9.984;2023-07-31T20:21:12;23.00;78.00
17994;DHT22;9122;48.406;9.984;2023-07-31T20:23:56;23.00;78.20
17994;DHT22;9122;48.406;9.984;2023-07-31T20:29:25;22.90;79.50
17994;DHT22;9122;48.406;9.984;2023-07-31T20:32:10;22.90;80.80
17994;DHT22;9122;48.406;9.984;2023-07-31T20:34:54;22.90;80.60
17994;DHT22;9122;48.406;9.984;2023-07-31T20:37:39;22.90;80.60
17994;DHT22;9122;48.406;9.984;2023-07-31T20:40:23;22.90;81.30
17994;DHT22;9122;48.406;9.984;2023-07-31T20:43:08;22.90;80.70
17994;DHT22;9122;48.406;9.984;2023-07-31T20:45:59;22.80;81.10
17994;DHT22;9122;48.406;9.984;2023-07-31T20:48:44;22.80;82.10
17994;DHT22;9122;48.406;9.984;2023-07-31T20:51:28;22.80;95.20
17994;DHT22;9122;48.406;9.984;2023-07-31T20:58:16;22.80;85.10
17994;DHT22;9122;48.406;9.984;2023-07-31T21:01:00;22.70;86.40
17994;DHT22;9122;48.406;9.984;2023-07-31T21:03:44;22.70;87.10
17994;DHT22;9122;48.406;9.984;2023-07-31T21:06:29;22.70;87.90
17994;DHT22;9122;48.406;9.984;2023-07-31T21:09:13;22.60;88.60
17994;DHT22;9122;48.406;9.984;2023-07-31T21:11:58;22.70;88.50
17994;DHT22;9122;48.406;9.984;2023-07-31T21:14:42;22.60;87.80
17994;DHT22;9122;48.406;9.984;2023-07-31T21:17:27;22.50;87.80
17994;DHT22;9122;48.406;9.984;2023-07-31T21:20:12;22.50;87.70
17994;DHT22;9122;48.406;9.984;2023-07-31T21:22:56;22.50;87.50
17994;DHT22;9122;48.406;9.984;2023-07-31T21:25:41;22.40;87.30
17994;DHT22;9122;48.406;9.984;2023-07-31T21:28:25;22.40;87.30
17994;DHT22;9122;48.406;9.984;2023-07-31T21:31:12;22.40;87.50
17994;DHT22;9122;48.406;9.984;2023-07-31T21:33:56;22.30;87.30
17994;DHT22;9122;48.406;9.984;2023-07-31T21:36:42;22.30;86.80
17994;DHT22;9122;48.406;9.984;2023-07-31T21:39:27;22.20;96.70
17994;DHT22;9122;48.406;9.984;2023-07-31T21:42:12;22.30;86.80
17994;DHT22;9122;48.406;9.984;2023-07-31T21:44:57;22.30;86.80
17994;DHT22;9122;48.406;9.984;2023-07-31T21:47:41;22.20;87.10
17994;DHT22;9122;48.406;9.984;2023-07-31T21:50:25;22.20;97.30
17994;DHT22;9122;48.406;9.984;2023-07-31T21:53:10;22.20;87.80
17994;DHT22;9122;48.406;9.984;2023-07-31T21:55:55;22.20;89.50
17994;DHT22;9122;48.406;9.984;2023-07-31T21:58:39;22.20;98.50
17994;DHT22;9122;48.406;9.984;2023-07-31T22:01:23;22.10;90.50
17994;DHT22;9122;48.406;9.984;2023-07-31T22:04:07;22.00;90.90
17994;DHT22;9122;48.406;9.984;2023-07-31T22:06:51;22.00;90.60
17994;DHT22;9122;48.406;9.984;2023-07-31T22:09:36;22.00;90.60
17994;DHT22;9122;48.406;9.984;2023-07-31T22:12:21;22.00;90.70
17994;DHT22;9122;48.406;9.984;2023-07-31T22:15:05;21.90;99.60
17994;DHT22;9122;48.406;9.984;2023-07-31T22:17:50;21.90;91.00
17994;DHT22;9122;48.406;9.984;2023-07-31T22:20:35;21.90;91.00
17994;DHT22;9122;48.406;9.984;2023-07-31T22:23:20;21.90;91.20
17994;DHT22;9122;48.406;9.984;2023-07-31T22:26:04;21.80;91.40
17994;DHT22;9122;48.406;9.984;2023-07-31T22:28:49;21.80;91.50
17994;DHT22;9122;48.406;9.984;2023-07-31T22:31:33;21.70;99.90
17994;DHT22;9122;48.406;9.984;2023-07-31T22:34:18;21.70;91.60
17994;DHT22;9122;48.406;9.984;2023-07-31T22:37:02;21.70;91.70
17994;DHT22;9122;48.406;9.984;2023-07-31T22:39:47;21.70;91.90
17994;DHT22;9122;48.406;9.984;2023-07-31T22:42:32;21.70;91.80
17994;DHT22;9122;48.406;9.984;2023-07-31T22:45:17;21.70;91.90
17994;DHT22;9122;48.406;9.984;2023-07-31T22:48:04;21.60;91.90
17994;DHT22;9122;48.406;9.984;2023-07-31T22:50:48;21.60;91.70
17994;DHT22;9122;48.406;9.984;2023-07-31T22:53:34;21.60;91.90
17994;DHT22;9122;48.406;9.984;2023-07-31T22:56:18;21.60;92.00
17994;DHT22;9122;48.406;9.984;2023-07-31T22:59:03;21.60;92.10
17994;DHT22;9122;48.406;9.984;2023-07-31T23:01:47;21.60;92.10
17994;DHT22;9122;48.406;9.984;2023-07-31T23:04:32;21.60;92.20
17994;DHT22;9122;48.406;9.984;2023-07-31T23:07:16;21.60;92.20
17994;DHT22;9122;48.406;9.984;2023-07-31T23:10:01;21.50;91.90
17994;DHT22;9122;48.406;9.984;2023-07-31T23:12:45;21.50;92.20
17994;DHT22;9122;48.406;9.984;2023-07-31T23:15:30;21.50;99.90
17994;DHT22;9122;48.406;9.984;2023-07-31T23:18:15;21.40;99.90
17994;DHT22;9122;48.406;9.984;2023-07-31T23:20:59;21.50;92.30
17994;DHT22;9122;48.406;9.984;2023-07-31T23:23:44;21.50;92.30
17994;DHT22;9122;48.406;9.984;2023-07-31T23:26:29;21.40;92.30
17994;DHT22;9122;48.406;9.984;2023-07-31T23:29:13;21.40;92.30
17994;DHT22;9122;48.406;9.984;2023-07-31T23:31:59;21.40;92.30
17994;DHT22;9122;48.406;9.984;2023-07-31T23:34:43;21.40;92.30
17994;DHT22;9122;48.406;9.984;2023-07-31T23:37:28;21.40;99.90
17994;DHT22;9122;48.406;9.984;2023-07-31T23:40:12;21.30;92.20
17994;DHT22;9122;48.406;9.984;2023-07-31T23:42:57;21.20;92.20
17994;DHT22;9122;48.406;9.984;2023-07-31T23:45:41;21.20;92.10
17994;DHT22;9122;48.406;9.984;2023-07-31T23:48:26;21.20;92.00
17994;DHT22;9122;48.406;9.984;2023-07-31T23:51:11;21.20;92.00